sensor_id;sensor_type;location;lat;lon;timestamp;pressure;altitude;pressure_sealevel;temperature;humidity
15604;BME280;7902;49.042;9.092;2023-08-31T00:00:50;98513.88;;;19.20;62.99
15604;BME280;7902;49.042;9.092;2023-08-31T00:03:19;98516.72;;;19.18;62.93
15604;BME280;7902;49.042;9.092;2023-08-31T00:05:45;98521.56;;;19.15;63.17
15604;BME280;7902;49.042;9.092;2023-08-31T00:08:11;98513.50;;;19.23;63.09
15604;BME280;7902;49.042;9.092;2023-08-31T00:10:39;98507.28;;;19.16;62.68
15604;BME280;7902;49.042;9.092;2023-08-31T00:13:06;98502.28;;;19.13;63.35
15604;BME280;7902;49.042;9.092;2023-08-31T00:15:34;98497.97;;;19.12;62.94
15604;BME280;7902;49.042;9.092;2023-08-31T00:18:01;98502.72;;;19.02;63.48
15604;BME280;7902;49.042;9.092;2023-08-31T00:20:30;98502.38;;;19.05;63.25
15604;BME280;7902;49.042;9.092;2023-08-31T00:22:56;98505.41;;;19.02;63.22
15604;BME280;7902;49.042;9.092;2023-08-31T00:25:22;98512.19;;;19.04;63.32
15604;BME280;7902;49.042;9.092;2023-08-31T00:27:48;98499.47;;;18.92;62.51
15604;BME280;7902;49.042;9.092;2023-08-31T00:30:14;98501.78;;;18.95;62.85
15604;BME280;7902;49.042;9.092;2023-08-31T00:32:41;98512.94;;;18.90;63.13
15604;BME280;7902;49.042;9.092;2023-08-31T00:35:11;98514.50;;;18.84;62.81
15604;BME280;7902;49.042;9.092;2023-08-31T00:37:37;98516.63;;;18.89;62.73
15604;BME280;7902;49.042;9.092;2023-08-31T00:40:04;98515.25;;;18.93;62.39
15604;BME280;7902;49.042;9.092;2023-08-31T00:42:32;98519.88;;;18.76;62.81
15604;BME280;7902;49.042;9.092;2023-08-31T00:44:58;98526.50;;;18.80;63.15
15604;BME280;7902;49.042;9.092;2023-08-31T00:47:24;98527.19;;;18.74;63.52
15604;BME280;7902;49.042;9.092;2023-08-31T00:49:50;98531.50;;;18.75;64.19
15604;BME280;7902;49.042;9.092;2023-08-31T00:52:17;98534.47;;;18.80;64.01
15604;BME280;7902;49.042;9.092;2023-08-31T00:54:45;98524.19;;;18.77;64.05
15604;BME280;7902;49.042;9.092;2023-08-31T00:57:11;98524.66;;;18.81;64.09
15604;BME280;7902;49.042;9.092;2023-08-31T00:59:38;98529.50;;;18.77;64.62
15604;BME280;7902;49.042;9.092;2023-08-31T01:07:40;98528.25;;;18.88;64.91
15604;BME280;7902;49.042;9.092;2023-08-31T01:10:18;98529.28;;;18.87;64.17
15604;BME280;7902;49.042;9.092;2023-08-31T01:12:55;98527.09;;;18.91;63.98
15604;BME280;7902;49.042;9.092;2023-08-31T01:15:25;98522.66;;;18.83;64.11
15604;BME280;7902;49.042;9.092;2023-08-31T01:17:54;98520.63;;;18.85;64.12
15604;BME280;7902;49.042;9.092;2023-08-31T01:20:31;98515.84;;;18.80;64.78
15604;BME280;7902;49.042;9.092;2023-08-31T01:23:02;98524.19;;;18.77;64.56
15604;BME280;7902;49.042;9.092;2023-08-31T01:25:29;98530.22;;;18.71;64.33
15604;BME280;7902;49.042;9.092;2023-08-31T01:27:56;98525.84;;;18.78;64.27
15604;BME280;7902;49.042;9.092;2023-08-31T01:30:24;98526.56;;;18.72;64.73
15604;BME280;7902;49.042;9.092;2023-08-31T01:32:49;98530.56;;;18.68;64.42
15604;BME280;7902;49.042;9.092;2023-08-31T01:35:17;98530.91;;;18.65;65.16
15604;BME280;7902;49.042;9.092;2023-08-31T01:37:47;98536.84;;;18.75;64.25
15604;BME280;7902;49.042;9.092;2023-08-31T01:40:38;98528.91;;;18.67;65.18
15604;BME280;7902;49.042;9.092;2023-08-31T01:43:06;98535.00;;;18.76;64.49
15604;BME280;7902;49.042;9.092;2023-08-31T01:45:33;98542.84;;;18.69;65.50
15604;BME280;7902;49.042;9.092;2023-08-31T01:47:59;98549.13;;;18.76;64.73
15604;BME280;7902;49.042;9.092;2023-08-31T01:50:25;98554.91;;;18.57;66.12
15604;BME280;7902;49.042;9.092;2023-08-31T01:52:52;98555.97;;;18.71;65.58
15604;BME280;7902;49.042;9.092;2023-08-31T01:55:22;98565.06;;;18.54;66.20
15604;BME280;7902;49.042;9.092;2023-08-31T01:57:48;98562.88;;;18.57;65.93
15604;BME280;7902;49.042;9.092;2023-08-31T02:00:17;98557.34;;;18.67;65.76
15604;BME280;7902;49.042;9.092;2023-08-31T02:02:43;98565.16;;;18.68;66.15
15604;BME280;7902;49.042;9.092;2023-08-31T02:05:10;98567.50;;;18.63;65.92
15604;BME280;7902;49.042;9.092;2023-08-31T02:07:36;98564.84;;;18.63;66.38
15604;BME280;7902;49.042;9.092;2023-08-31T02:10:03;98566.00;;;18.61;65.83
15604;BME280;7902;49.042;9.092;2023-08-31T02:12:32;98565.25;;;18.44;66.54
15604;BME280;7902;49.042;9.092;2023-08-31T02:14:59;98555.41;;;18.53;66.72
15604;BME280;7902;49.042;9.092;2023-08-31T02:17:26;98562.34;;;18.62;66.03
15604;BME280;7902;49.042;9.092;2023-08-31T02:19:52;98568.34;;;18.56;65.95
15604;BME280;7902;49.042;9.092;2023-08-31T02:22:18;98562.19;;;18.63;65.74
15604;BME280;7902;49.042;9.092;2023-08-31T02:24:44;98560.88;;;18.59;65.60
15604;BME280;7902;49.042;9.092;2023-08-31T02:27:10;98553.75;;;18.60;65.80
15604;BME280;7902;49.042;9.092;2023-08-31T02:29:36;98557.72;;;18.56;65.62
15604;BME280;7902;49.042;9.092;2023-08-31T02:32:04;98554.91;;;18.57;65.51
15604;BME280;7902;49.042;9.092;2023-08-31T02:34:30;98561.13;;;18.72;64.97
15604;BME280;7902;49.042;9.092;2023-08-31T02:36:56;98557.69;;;18.64;64.73
15604;BME280;7902;49.042;9.092;2023-08-31T02:39:22;98554.50;;;18.68;65.01
15604;BME280;7902;49.042;9.092;2023-08-31T02:41:48;98561.22;;;18.56;65.11
15604;BME280;7902;49.042;9.092;2023-08-31T02:44:14;98561.22;;;18.48;65.27
15604;BME280;7902;49.042;9.092;2023-08-31T02:46:40;98568.59;;;18.38;65.62
15604;BME280;7902;49.042;9.092;2023-08-31T02:49:06;98570.09;;;18.40;65.43
15604;BME280;7902;49.042;9.092;2023-08-31T02:51:32;98571.59;;;18.35;65.91
15604;BME280;7902;49.042;9.092;2023-08-31T02:53:58;98573.06;;;18.46;65.30
15604;BME280;7902;49.042;9.092;2023-08-31T02:56:24;98571.69;;;18.58;65.32
15604;BME280;7902;49.042;9.092;2023-08-31T02:58:50;98579.88;;;18.40;65.37
15604;BME280;7902;49.042;9.092;2023-08-31T03:01:16;98584.19;;;18.41;65.11
15604;BME280;7902;49.042;9.092;2023-08-31T03:03:42;98586.25;;;18.23;65.89
15604;BME280;7902;49.042;9.092;2023-08-31T03:06:11;98591.84;;;18.44;66.02
15604;BME280;7902;49.042;9.092;2023-08-31T03:08:37;98581.66;;;18.48;65.49
15604;BME280;7902;49.042;9.092;2023-08-31T03:11:04;98583.53;;;18.39;65.63
15604;BME280;7902;49.042;9.092;2023-08-31T03:13:31;98585.34;;;18.55;65.07
15604;BME280;7902;49.042;9.092;2023-08-31T03:15:57;98584.84;;;18.43;66.20
15604;BME280;7902;49.042;9.092;2023-08-31T03:18:23;98579.88;;;18.40;65.99
15604;BME280;7902;49.042;9.092;2023-08-31T03:20:49;98587.19;;;18.38;66.04
15604;BME280;7902;49.042;9.092;2023-08-31T03:23:15;98580.63;;;18.18;66.30
15604;BME280;7902;49.042;9.092;2023-08-31T03:25:41;98582.16;;;18.51;65.67
15604;BME280;7902;49.042;9.092;2023-08-31T03:28:08;98588.84;;;18.39;65.69
15604;BME280;7902;49.042;9.092;2023-08-31T03:30:34;98587.75;;;18.25;66.61
15604;BME280;7902;49.042;9.092;2023-08-31T03:33:00;98588.75;;;18.24;66.44
15604;BME280;7902;49.042;9.092;2023-08-31T03:35:25;98593.06;;;18.25;66.39
15604;BME280;7902;49.042;9.092;2023-08-31T03:37:55;98599.28;;;18.49;65.55
15604;BME280;7902;49.042;9.092;2023-08-31T03:40:21;98593.19;;;18.40;65.88
15604;BME280;7902;49.042;9.092;2023-08-31T03:42:49;98595.34;;;18.36;65.67
15604;BME280;7902;49.042;9.092;2023-08-31T03:45:15;98589.47;;;18.49;65.70
15604;BME280;7902;49.042;9.092;2023-08-31T03:47:41;98592.97;;;18.50;65.06
15604;BME280;7902;49.042;9.092;2023-08-31T03:50:07;98577.84;;;18.58;64.73
15604;BME280;7902;49.042;9.092;2023-08-31T03:52:34;98586.00;;;18.49;64.56
15604;BME280;7902;49.042;9.092;2023-08-31T03:55:00;98592.50;;;18.38;64.93
15604;BME280;7902;49.042;9.092;2023-08-31T03:57:26;98603.31;;;18.36;64.39
15604;BME280;7902;49.042;9.092;2023-08-31T03:59:52;98609.13;;;18.32;64.33
15604;BME280;7902;49.042;9.092;2023-08-31T04:02:18;98606.88;;;18.21;64.87
15604;BME280;7902;49.042;9.092;2023-08-31T04:04:44;98607.22;;;18.10;65.76
15604;BME280;7902;49.042;9.092;2023-08-31T04:07:09;98605.69;;;18.31;64.88
15604;BME280;7902;49.042;9.092;2023-08-31T04:09:35;98615.84;;;18.20;65.17
15604;BME280;7902;49.042;9.092;2023-08-31T04:12:02;98609.53;;;18.21;65.65
15604;BME280;7902;49.042;9.092;2023-08-31T04:14:28;98611.91;;;18.08;66.44
15604;BME280;7902;49.042;9.092;2023-08-31T04:16:55;98610.88;;;18.17;65.68
15604;BME280;7902;49.042;9.092;2023-08-31T04:19:21;98614.94;;;17.88;66.70
15604;BME280;7902;49.042;9.092;2023-08-31T04:21:47;98619.19;;;18.06;66.34
15604;BME280;7902;49.042;9.092;2023-08-31T04:24:13;98615.19;;;18.10;65.87
15604;BME280;7902;49.042;9.092;2023-08-31T04:26:39;98617.63;;;18.27;65.42
15604;BME280;7902;49.042;9.092;2023-08-31T04:29:05;98625.84;;;18.02;66.29
15604;BME280;7902;49.042;9.092;2023-08-31T04:31:34;98625.34;;;18.06;65.93
15604;BME280;7902;49.042;9.092;2023-08-31T04:34:00;98621.69;;;18.07;66.38
15604;BME280;7902;49.042;9.092;2023-08-31T04:36:26;98629.84;;;17.89;66.95
15604;BME280;7902;49.042;9.092;2023-08-31T04:38:52;98630.53;;;17.91;66.09
15604;BME280;7902;49.042;9.092;2023-08-31T04:41:18;98635.34;;;17.88;66.40
15604;BME280;7902;49.042;9.092;2023-08-31T04:43:44;98638.50;;;17.91;66.71
15604;BME280;7902;49.042;9.092;2023-08-31T04:46:13;98645.50;;;17.84;66.88
15604;BME280;7902;49.042;9.092;2023-08-31T04:48:39;98646.47;;;17.83;66.56
15604;BME280;7902;49.042;9.092;2023-08-31T04:51:05;98640.13;;;18.01;65.68
15604;BME280;7902;49.042;9.092;2023-08-31T04:53:31;98644.63;;;17.92;65.85
15604;BME280;7902;49.042;9.092;2023-08-31T04:55:58;98630.84;;;17.96;65.21
15604;BME280;7902;49.042;9.092;2023-08-31T04:58:24;98642.78;;;18.01;64.60
15604;BME280;7902;49.042;9.092;2023-08-31T05:00:53;98644.44;;;18.10;64.87
15604;BME280;7902;49.042;9.092;2023-08-31T05:03:19;98647.75;;;18.04;64.17
15604;BME280;7902;49.042;9.092;2023-08-31T05:05:45;98638.16;;;17.94;64.85
15604;BME280;7902;49.042;9.092;2023-08-31T05:08:11;98633.28;;;18.14;64.23
15604;BME280;7902;49.042;9.092;2023-08-31T05:10:37;98634.97;;;18.07;63.54
15604;BME280;7902;49.042;9.092;2023-08-31T05:13:03;98648.75;;;18.11;62.85
15604;BME280;7902;49.042;9.092;2023-08-31T05:15:29;98654.06;;;18.11;62.46
15604;BME280;7902;49.042;9.092;2023-08-31T05:17:55;98651.44;;;18.03;62.84
15604;BME280;7902;49.042;9.092;2023-08-31T05:20:21;98658.53;;;18.10;63.53
15604;BME280;7902;49.042;9.092;2023-08-31T05:22:50;98659.56;;;18.01;63.13
15604;BME280;7902;49.042;9.092;2023-08-31T05:25:16;98663.75;;;17.87;63.45
15604;BME280;7902;49.042;9.092;2023-08-31T05:27:42;98666.19;;;18.05;63.33
15604;BME280;7902;49.042;9.092;2023-08-31T05:30:08;98663.38;;;18.07;63.39
15604;BME280;7902;49.042;9.092;2023-08-31T05:32:34;98663.41;;;17.98;62.78
15604;BME280;7902;49.042;9.092;2023-08-31T05:35:00;98665.84;;;18.08;62.38
15604;BME280;7902;49.042;9.092;2023-08-31T05:37:32;98668.03;;;17.96;62.52
15604;BME280;7902;49.042;9.092;2023-08-31T05:39:58;98670.50;;;18.14;62.13
15604;BME280;7902;49.042;9.092;2023-08-31T05:42:24;98677.16;;;18.10;62.03
15604;BME280;7902;49.042;9.092;2023-08-31T05:44:50;98680.97;;;18.16;61.37
15604;BME280;7902;49.042;9.092;2023-08-31T05:47:16;98683.81;;;18.06;61.42
15604;BME280;7902;49.042;9.092;2023-08-31T05:49:41;98676.97;;;18.20;61.65
15604;BME280;7902;49.042;9.092;2023-08-31T05:52:07;98693.06;;;18.18;61.60
15604;BME280;7902;49.042;9.092;2023-08-31T05:54:34;98696.41;;;18.12;61.60
15604;BME280;7902;49.042;9.092;2023-08-31T05:57:02;98692.75;;;18.21;62.39
15604;BME280;7902;49.042;9.092;2023-08-31T05:59:29;98692.75;;;18.21;62.37
15604;BME280;7902;49.042;9.092;2023-08-31T06:01:55;98690.09;;;18.21;62.98
15604;BME280;7902;49.042;9.092;2023-08-31T06:04:21;98692.91;;;18.04;63.34
15604;BME280;7902;49.042;9.092;2023-08-31T06:06:46;98701.19;;;18.33;62.80
15604;BME280;7902;49.042;9.092;2023-08-31T06:09:13;98700.53;;;18.23;63.25
15604;BME280;7902;49.042;9.092;2023-08-31T06:11:39;98705.47;;;18.42;62.96
15604;BME280;7902;49.042;9.092;2023-08-31T06:14:06;98713.13;;;18.37;63.36
15604;BME280;7902;49.042;9.092;2023-08-31T06:16:32;98707.13;;;18.43;62.94
15604;BME280;7902;49.042;9.092;2023-08-31T06:18:58;98719.59;;;18.42;63.30
15604;BME280;7902;49.042;9.092;2023-08-31T06:21:24;98721.25;;;18.43;62.97
15604;BME280;7902;49.042;9.092;2023-08-31T06:23:49;98728.72;;;18.48;62.87
15604;BME280;7902;49.042;9.092;2023-08-31T06:26:15;98727.44;;;18.36;63.22
15604;BME280;7902;49.042;9.092;2023-08-31T06:28:41;98725.75;;;18.59;62.49
15604;BME280;7902;49.042;9.092;2023-08-31T06:31:07;98728.06;;;18.46;63.28
15604;BME280;7902;49.042;9.092;2023-08-31T06:33:34;98728.56;;;18.58;63.26
15604;BME280;7902;49.042;9.092;2023-08-31T06:36:00;98731.06;;;18.59;62.84
15604;BME280;7902;49.042;9.092;2023-08-31T06:38:26;98733.38;;;18.62;62.84
15604;BME280;7902;49.042;9.092;2023-08-31T06:40:52;98739.88;;;18.60;62.45
15604;BME280;7902;49.042;9.092;2023-08-31T06:43:24;98745.69;;;18.55;62.81
15604;BME280;7902;49.042;9.092;2023-08-31T06:45:50;98748.34;;;18.55;62.52
15604;BME280;7902;49.042;9.092;2023-08-31T06:48:16;98756.31;;;18.63;62.82
15604;BME280;7902;49.042;9.092;2023-08-31T06:50:41;98745.63;;;18.71;62.84
15604;BME280;7902;49.042;9.092;2023-08-31T06:53:07;98749.81;;;18.66;62.50
15604;BME280;7902;49.042;9.092;2023-08-31T06:55:33;98751.06;;;18.86;62.52
15604;BME280;7902;49.042;9.092;2023-08-31T06:58:01;98742.25;;;18.85;62.28
15604;BME280;7902;49.042;9.092;2023-08-31T07:00:28;98746.63;;;18.78;62.35
15604;BME280;7902;49.042;9.092;2023-08-31T07:02:54;98749.97;;;18.72;61.74
15604;BME280;7902;49.042;9.092;2023-08-31T07:05:25;98758.22;;;18.85;61.89
15604;BME280;7902;49.042;9.092;2023-08-31T07:07:54;98760.22;;;18.92;62.21
15604;BME280;7902;49.042;9.092;2023-08-31T07:10:21;98763.34;;;18.95;61.85
15604;BME280;7902;49.042;9.092;2023-08-31T07:12:47;98767.19;;;18.93;60.99
15604;BME280;7902;49.042;9.092;2023-08-31T07:15:13;98765.84;;;18.89;61.82
15604;BME280;7902;49.042;9.092;2023-08-31T07:17:39;98757.34;;;19.01;61.45
15604;BME280;7902;49.042;9.092;2023-08-31T07:20:05;98770.97;;;18.98;61.61
15604;BME280;7902;49.042;9.092;2023-08-31T07:22:33;98777.06;;;19.15;61.19
15604;BME280;7902;49.042;9.092;2023-08-31T07:24:59;98778.22;;;19.12;60.49
15604;BME280;7902;49.042;9.092;2023-08-31T07:27:25;98782.88;;;19.18;60.16
15604;BME280;7902;49.042;9.092;2023-08-31T07:29:54;98791.41;;;19.06;61.01
15604;BME280;7902;49.042;9.092;2023-08-31T07:32:20;98794.56;;;19.09;60.36
15604;BME280;7902;49.042;9.092;2023-08-31T07:34:46;98798.38;;;19.15;60.57
15604;BME280;7902;49.042;9.092;2023-08-31T07:37:12;98814.66;;;19.12;60.31
15604;BME280;7902;49.042;9.092;2023-08-31T07:39:38;98808.03;;;19.16;60.32
15604;BME280;7902;49.042;9.092;2023-08-31T07:42:04;98811.13;;;19.27;60.36
15604;BME280;7902;49.042;9.092;2023-08-31T07:44:30;98813.25;;;19.32;60.07
15604;BME280;7902;49.042;9.092;2023-08-31T07:46:57;98809.28;;;19.28;60.37
15604;BME280;7902;49.042;9.092;2023-08-31T07:49:22;98816.69;;;19.41;59.80
15604;BME280;7902;49.042;9.092;2023-08-31T07:51:49;98808.28;;;19.29;59.50
15604;BME280;7902;49.042;9.092;2023-08-31T07:54:22;98808.41;;;19.44;59.04
15604;BME280;7902;49.042;9.092;2023-08-31T07:56:48;98802.44;;;19.34;59.43
15604;BME280;7902;49.042;9.092;2023-08-31T07:59:14;98805.75;;;19.44;59.55
15604;BME280;7902;49.042;9.092;2023-08-31T08:01:40;98812.16;;;19.57;59.25
15604;BME280;7902;49.042;9.092;2023-08-31T08:04:11;98810.88;;;19.76;58.42
15604;BME280;7902;49.042;9.092;2023-08-31T08:06:37;98820.25;;;19.72;58.19
15604;BME280;7902;49.042;9.092;2023-08-31T08:09:03;98812.72;;;19.76;58.01
15604;BME280;7902;49.042;9.092;2023-08-31T08:11:31;98809.28;;;19.67;57.60
15604;BME280;7902;49.042;9.092;2023-08-31T08:13:57;98823.38;;;19.76;57.72
15604;BME280;7902;49.042;9.092;2023-08-31T08:16:23;98825.97;;;19.84;57.19
15604;BME280;7902;49.042;9.092;2023-08-31T08:18:49;98827.66;;;19.85;57.78
15604;BME280;7902;49.042;9.092;2023-08-31T08:21:15;98830.31;;;19.85;58.01
15604;BME280;7902;49.042;9.092;2023-08-31T08:23:41;98832.66;;;19.80;56.86
15604;BME280;7902;49.042;9.092;2023-08-31T08:26:07;98832.91;;;19.93;56.94
15604;BME280;7902;49.042;9.092;2023-08-31T08:28:33;98829.09;;;19.95;57.01
15604;BME280;7902;49.042;9.092;2023-08-31T08:31:01;98839.53;;;19.97;57.31
15604;BME280;7902;49.042;9.092;2023-08-31T08:33:29;98826.22;;;19.97;57.10
15604;BME280;7902;49.042;9.092;2023-08-31T08:35:56;98844.56;;;19.92;57.17
15604;BME280;7902;49.042;9.092;2023-08-31T08:38:22;98842.94;;;19.91;57.18
15604;BME280;7902;49.042;9.092;2023-08-31T08:40:48;98840.81;;;20.09;56.85
15604;BME280;7902;49.042;9.092;2023-08-31T08:43:14;98836.41;;;19.93;57.61
15604;BME280;7902;49.042;9.092;2023-08-31T08:45:41;98826.13;;;20.13;57.17
15604;BME280;7902;49.042;9.092;2023-08-31T08:48:10;98838.31;;;20.07;57.18
15604;BME280;7902;49.042;9.092;2023-08-31T08:50:36;98831.81;;;20.10;57.29
15604;BME280;7902;49.042;9.092;2023-08-31T08:53:05;98833.41;;;20.19;57.04
15604;BME280;7902;49.042;9.092;2023-08-31T08:55:32;98839.81;;;20.10;57.53
15604;BME280;7902;49.042;9.092;2023-08-31T08:57:59;98836.66;;;20.06;56.87
15604;BME280;7902;49.042;9.092;2023-08-31T09:00:29;98837.47;;;20.07;55.07
15604;BME280;7902;49.042;9.092;2023-08-31T09:02:56;98834.78;;;20.15;55.62
15604;BME280;7902;49.042;9.092;2023-08-31T09:05:22;98842.09;;;20.13;54.55
15604;BME280;7902;49.042;9.092;2023-08-31T09:08:05;98843.34;;;20.02;54.78
15604;BME280;7902;49.042;9.092;2023-08-31T09:10:33;98850.78;;;20.15;53.98
15604;BME280;7902;49.042;9.092;2023-08-31T09:13:01;98845.06;;;19.95;54.80
15604;BME280;7902;49.042;9.092;2023-08-31T09:15:39;98842.56;;;20.16;53.93
15604;BME280;7902;49.042;9.092;2023-08-31T09:18:05;98849.66;;;20.32;54.22
15604;BME280;7902;49.042;9.092;2023-08-31T09:20:31;98845.44;;;20.15;54.41
15604;BME280;7902;49.042;9.092;2023-08-31T09:22:58;98862.47;;;20.06;53.18
15604;BME280;7902;49.042;9.092;2023-08-31T09:25:24;98857.88;;;20.23;53.56
15604;BME280;7902;49.042;9.092;2023-08-31T09:27:51;98857.63;;;20.09;53.07
15604;BME280;7902;49.042;9.092;2023-08-31T09:30:17;98860.66;;;20.29;53.70
15604;BME280;7902;49.042;9.092;2023-08-31T09:32:43;98870.19;;;20.24;54.37
15604;BME280;7902;49.042;9.092;2023-08-31T09:35:10;98865.75;;;20.39;54.26
15604;BME280;7902;49.042;9.092;2023-08-31T09:37:36;98855.66;;;20.49;53.12
15604;BME280;7902;49.042;9.092;2023-08-31T09:40:03;98857.66;;;20.32;53.50
15604;BME280;7902;49.042;9.092;2023-08-31T09:42:38;98858.34;;;20.49;54.11
15604;BME280;7902;49.042;9.092;2023-08-31T09:45:05;98856.69;;;20.48;53.99
15604;BME280;7902;49.042;9.092;2023-08-31T09:47:31;98856.97;;;20.53;54.55
15604;BME280;7902;49.042;9.092;2023-08-31T09:49:57;98852.59;;;20.60;53.40
15604;BME280;7902;49.042;9.092;2023-08-31T09:52:24;98852.88;;;20.65;54.58
15604;BME280;7902;49.042;9.092;2023-08-31T09:54:51;98856.00;;;20.69;53.80
15604;BME280;7902;49.042;9.092;2023-08-31T09:57:20;98857.94;;;20.75;52.65
15604;BME280;7902;49.042;9.092;2023-08-31T09:59:48;98855.38;;;20.67;54.08
15604;BME280;7902;49.042;9.092;2023-08-31T10:02:15;98860.69;;;20.67;52.75
15604;BME280;7902;49.042;9.092;2023-08-31T10:04:42;98854.03;;;20.63;51.14
15604;BME280;7902;49.042;9.092;2023-08-31T10:07:11;98858.94;;;20.74;51.17
15604;BME280;7902;49.042;9.092;2023-08-31T10:09:37;98857.75;;;20.62;52.57
15604;BME280;7902;49.042;9.092;2023-08-31T10:12:04;98863.72;;;20.64;50.90
15604;BME280;7902;49.042;9.092;2023-08-31T10:14:31;98868.25;;;20.78;52.25
15604;BME280;7902;49.042;9.092;2023-08-31T10:16:58;98867.75;;;20.59;51.32
15604;BME280;7902;49.042;9.092;2023-08-31T10:19:24;98865.47;;;20.56;51.32
15604;BME280;7902;49.042;9.092;2023-08-31T10:21:50;98862.34;;;20.68;51.40
15604;BME280;7902;49.042;9.092;2023-08-31T10:24:15;98866.59;;;20.62;50.66
15604;BME280;7902;49.042;9.092;2023-08-31T10:26:41;98875.50;;;20.69;48.96
15604;BME280;7902;49.042;9.092;2023-08-31T10:29:25;98870.28;;;20.76;48.29
15604;BME280;7902;49.042;9.092;2023-08-31T10:31:52;98870.31;;;20.90;50.35
15604;BME280;7902;49.042;9.092;2023-08-31T10:34:34;98861.25;;;20.77;48.39
15604;BME280;7902;49.042;9.092;2023-08-31T10:37:00;98868.72;;;20.81;50.01
15604;BME280;7902;49.042;9.092;2023-08-31T10:39:37;98862.03;;;20.85;49.52
15604;BME280;7902;49.042;9.092;2023-08-31T10:42:03;98864.88;;;20.84;49.48
15604;BME280;7902;49.042;9.092;2023-08-31T10:44:30;98868.53;;;20.83;49.31
15604;BME280;7902;49.042;9.092;2023-08-31T10:47:00;98866.06;;;20.96;49.21
15604;BME280;7902;49.042;9.092;2023-08-31T10:49:28;98860.09;;;21.09;47.61
15604;BME280;7902;49.042;9.092;2023-08-31T10:51:55;98852.47;;;21.20;45.97
15604;BME280;7902;49.042;9.092;2023-08-31T10:54:30;98855.34;;;21.19;47.07
15604;BME280;7902;49.042;9.092;2023-08-31T10:59:46;98855.53;;;21.17;48.17
15604;BME280;7902;49.042;9.092;2023-08-31T11:05:07;98853.28;;;21.06;47.73
15604;BME280;7902;49.042;9.092;2023-08-31T11:07:34;98860.28;;;21.07;45.16
15604;BME280;7902;49.042;9.092;2023-08-31T11:12:36;98852.53;;;20.97;48.25
15604;BME280;7902;49.042;9.092;2023-08-31T11:15:03;98850.97;;;21.03;47.19
15604;BME280;7902;49.042;9.092;2023-08-31T11:17:29;98856.22;;;20.96;48.48
15604;BME280;7902;49.042;9.092;2023-08-31T11:19:57;98847.31;;;21.04;47.08
15604;BME280;7902;49.042;9.092;2023-08-31T11:22:24;98845.25;;;21.06;48.63
15604;BME280;7902;49.042;9.092;2023-08-31T11:24:50;98846.56;;;21.10;48.74
15604;BME280;7902;49.042;9.092;2023-08-31T11:27:19;98847.22;;;21.12;49.35
15604;BME280;7902;49.042;9.092;2023-08-31T11:29:46;98848.59;;;21.08;49.54
15604;BME280;7902;49.042;9.092;2023-08-31T11:32:12;98848.22;;;21.11;48.47
15604;BME280;7902;49.042;9.092;2023-08-31T11:34:41;98844.47;;;21.20;48.23
15604;BME280;7902;49.042;9.092;2023-08-31T11:37:09;98855.22;;;21.12;47.70
15604;BME280;7902;49.042;9.092;2023-08-31T11:39:37;98859.63;;;21.05;49.12
15604;BME280;7902;49.042;9.092;2023-08-31T11:42:03;98852.72;;;21.11;47.89
15604;BME280;7902;49.042;9.092;2023-08-31T11:44:29;98859.66;;;21.20;48.65
15604;BME280;7902;49.042;9.092;2023-08-31T11:46:56;98859.38;;;21.29;48.68
15604;BME280;7902;49.042;9.092;2023-08-31T11:49:22;98855.81;;;21.22;49.44
15604;BME280;7902;49.042;9.092;2023-08-31T11:51:48;98852.84;;;21.32;48.03
15604;BME280;7902;49.042;9.092;2023-08-31T11:54:16;98848.41;;;21.39;49.26
15604;BME280;7902;49.042;9.092;2023-08-31T11:56:43;98851.19;;;21.45;49.06
15604;BME280;7902;49.042;9.092;2023-08-31T11:59:12;98850.06;;;21.55;48.88
15604;BME280;7902;49.042;9.092;2023-08-31T12:01:42;98838.28;;;21.49;49.16
15604;BME280;7902;49.042;9.092;2023-08-31T12:04:44;98850.06;;;21.55;48.52
15604;BME280;7902;49.042;9.092;2023-08-31T12:07:10;98839.69;;;21.66;48.49
15604;BME280;7902;49.042;9.092;2023-08-31T12:09:36;98839.66;;;21.60;48.97
15604;BME280;7902;49.042;9.092;2023-08-31T12:12:02;98842.19;;;21.68;48.89
15604;BME280;7902;49.042;9.092;2023-08-31T12:14:30;98841.06;;;21.77;48.51
15604;BME280;7902;49.042;9.092;2023-08-31T12:17:07;98842.59;;;21.86;49.08
15604;BME280;7902;49.042;9.092;2023-08-31T12:19:37;98826.94;;;21.83;48.96
15604;BME280;7902;49.042;9.092;2023-08-31T12:22:05;98835.41;;;22.01;48.96
15604;BME280;7902;49.042;9.092;2023-08-31T12:24:39;98840.88;;;22.14;48.17
15604;BME280;7902;49.042;9.092;2023-08-31T12:27:09;98845.47;;;22.20;48.13
15604;BME280;7902;49.042;9.092;2023-08-31T12:29:35;98826.47;;;22.15;47.52
15604;BME280;7902;49.042;9.092;2023-08-31T12:32:01;98832.88;;;22.42;47.38
15604;BME280;7902;49.042;9.092;2023-08-31T12:34:28;98828.38;;;22.43;46.59
15604;BME280;7902;49.042;9.092;2023-08-31T12:36:54;98837.03;;;22.45;47.43
15604;BME280;7902;49.042;9.092;2023-08-31T12:39:25;98837.06;;;22.51;46.54
15604;BME280;7902;49.042;9.092;2023-08-31T12:41:51;98836.41;;;22.43;47.54
15604;BME280;7902;49.042;9.092;2023-08-31T12:44:17;98830.44;;;22.41;48.04
15604;BME280;7902;49.042;9.092;2023-08-31T12:46:43;98840.81;;;22.50;46.34
15604;BME280;7902;49.042;9.092;2023-08-31T12:49:09;98830.91;;;22.51;46.91
15604;BME280;7902;49.042;9.092;2023-08-31T12:51:36;98827.06;;;22.81;45.65
15604;BME280;7902;49.042;9.092;2023-08-31T12:54:02;98835.56;;;22.91;47.28
15604;BME280;7902;49.042;9.092;2023-08-31T12:56:29;98834.88;;;23.10;45.63
15604;BME280;7902;49.042;9.092;2023-08-31T12:58:55;98829.69;;;23.09;45.26
15604;BME280;7902;49.042;9.092;2023-08-31T13:01:21;98830.13;;;23.12;44.38
15604;BME280;7902;49.042;9.092;2023-08-31T13:03:49;98830.47;;;23.03;44.36
15604;BME280;7902;49.042;9.092;2023-08-31T13:06:15;98827.06;;;23.15;43.83
15604;BME280;7902;49.042;9.092;2023-08-31T13:08:43;98833.50;;;23.21;44.63
15604;BME280;7902;49.042;9.092;2023-08-31T13:11:10;98846.53;;;23.03;44.66
15604;BME280;7902;49.042;9.092;2023-08-31T13:13:37;98845.94;;;23.07;44.84
15604;BME280;7902;49.042;9.092;2023-08-31T13:16:03;98838.00;;;22.86;44.96
15604;BME280;7902;49.042;9.092;2023-08-31T13:18:29;98846.88;;;22.93;44.69
15604;BME280;7902;49.042;9.092;2023-08-31T13:20:55;98837.13;;;23.13;46.41
15604;BME280;7902;49.042;9.092;2023-08-31T13:23:22;98840.75;;;22.99;44.54